Time;durP1;ratioP1;P1;durP2;ratioP2;P2;SDS_P1;SDS_P2;PMS_P1;PMS_P2;Temp;Humidity;BMP_temperature;BMP_pressure;BME280_temperature;BME280_humidity;BME280_pressure;Samples;Min_cycle;Max_cycle;Signal;HPM_P1;HPM_P2
2022/08/19 00:01:43;;;;;;;15.70;12.90;;;;;;;17.37;100.00;101218.72;5047595;28;20029;-81
2022/08/19 00:04:11;;;;;;;15.82;13.25;;;;;;;17.29;100.00;101208.56;5045765;28;20040;-81
2022/08/19 00:06:39;;;;;;;22.00;13.68;;;;;;;17.26;100.00;101215.38;5043919;28;20090;-81
2022/08/19 00:09:06;;;;;;;19.95;14.80;;;;;;;17.19;100.00;101223.03;5049081;28;20033;-81
2022/08/19 00:11:34;;;;;;;20.85;15.38;;;;;;;17.13;100.00;101213.41;5038539;28;20373;-80
2022/08/19 00:13:59;;;;;;;19.27;15.47;;;;;;;17.14;100.00;101212.31;5047956;28;20040;-81
2022/08/19 00:16:26;;;;;;;19.40;16.00;;;;;;;17.12;100.00;101219.91;5049712;28;20835;-81
2022/08/19 00:18:51;;;;;;;20.17;15.73;;;;;;;17.08;100.00;101220.50;5048756;28;20032;-80
2022/08/19 00:21:17;;;;;;;19.13;15.43;;;;;;;17.08;100.00;101220.50;5048274;28;20035;-81
2022/08/19 00:23:43;;;;;;;20.30;16.52;;;;;;;17.06;100.00;101211.84;5045879;28;20389;-81
2022/08/19 00:26:10;;;;;;;16.97;15.13;;;;;;;17.05;100.00;101214.88;5048986;28;20474;-81
2022/08/19 00:28:35;;;;;;;19.77;15.52;;;;;;;17.01;100.00;101219.25;5049105;28;20124;-81
2022/08/19 00:31:02;;;;;;;22.02;16.20;;;;;;;16.97;100.00;101219.03;5048573;28;20508;-81
2022/08/19 00:33:32;;;;;;;25.27;18.47;;;;;;;16.91;100.00;101218.25;5044525;28;20115;-81
2022/08/19 00:35:58;;;;;;;24.13;19.27;;;;;;;16.89;100.00;101222.34;5045721;28;20061;-81
2022/08/19 00:38:23;;;;;;;25.77;19.48;;;;;;;16.88;100.00;101226.16;5038758;28;20059;-80
2022/08/19 00:40:55;;;;;;;22.87;19.10;;;;;;;16.88;100.00;101237.78;5031043;28;20176;-81
2022/08/19 00:43:23;;;;;;;24.50;19.08;;;;;;;16.81;100.00;101226.50;5048164;28;20021;-82
2022/08/19 00:45:49;;;;;;;24.23;18.67;;;;;;;16.76;100.00;101218.44;5046829;28;20542;-81
2022/08/19 00:48:16;;;;;;;26.27;19.67;;;;;;;16.73;100.00;101219.84;5049326;28;20048;-81
2022/08/19 00:50:42;;;;;;;25.60;19.90;;;;;;;16.73;100.00;101225.25;5052118;28;20025;-80
2022/08/19 00:53:10;;;;;;;26.30;19.38;;;;;;;16.73;100.00;101224.44;5048351;28;20026;-81
2022/08/19 00:55:37;;;;;;;22.90;18.52;;;;;;;16.68;100.00;101221.81;5050976;28;20033;-80
2022/08/19 00:58:09;;;;;;;22.80;18.90;;;;;;;16.63;100.00;101218.06;5052239;28;20028;-80
2022/08/19 01:00:37;;;;;;;27.23;19.90;;;;;;;16.62;100.00;101223.75;5049320;28;20362;-81
2022/08/19 01:03:12;;;;;;;28.75;21.13;;;;;;;16.60;100.00;101224.06;5049877;28;20052;-81
2022/08/19 01:05:41;;;;;;;30.80;22.40;;;;;;;16.58;100.00;101223.53;5045716;28;20720;-80
2022/08/19 01:08:08;;;;;;;29.10;23.15;;;;;;;16.54;100.00;101217.09;5035398;28;20056;-81
2022/08/19 01:10:44;;;;;;;38.65;24.63;;;;;;;16.52;100.00;101218.47;5052338;28;20040;-81
2022/08/19 01:13:10;;;;;;;32.03;23.13;;;;;;;16.50;100.00;101222.28;5049482;28;20028;-81
2022/08/19 01:15:43;;;;;;;34.05;24.00;;;;;;;16.50;100.00;101219.56;5051935;28;20025;-81
2022/08/19 01:18:12;;;;;;;34.17;24.80;;;;;;;16.52;100.00;101230.13;5052919;28;20464;-80
2022/08/19 01:20:39;;;;;;;35.78;24.25;;;;;;;16.49;100.00;101220.66;5051820;28;20036;-82
2022/08/19 01:23:04;;;;;;;35.93;25.63;;;;;;;16.50;100.00;101219.56;5037748;28;20469;-82
2022/08/19 01:25:44;;;;;;;37.13;26.77;;;;;;;16.46;100.00;101225.84;5048206;28;20310;-80
2022/08/19 01:33:13;;;;;;;38.30;25.45;;;;;;;16.41;100.00;101218.59;5724348;22;20416;-81
2022/08/19 01:35:40;;;;;;;36.90;25.60;;;;;;;16.37;100.00;101214.03;5068699;28;20024;-80
2022/08/19 01:38:09;;;;;;;36.50;25.92;;;;;;;16.37;100.00;101228.38;5069533;28;20036;-81
2022/08/19 01:40:38;;;;;;;36.42;26.58;;;;;;;16.34;100.00;101215.44;5071240;28;20020;-81
2022/08/19 01:43:04;;;;;;;42.25;29.33;;;;;;;16.35;100.00;101225.16;5071722;28;20033;-81
2022/08/19 01:45:33;;;;;;;38.00;26.37;;;;;;;16.32;100.00;101215.72;5071941;28;20031;-81
2022/08/19 01:47:59;;;;;;;39.53;27.73;;;;;;;16.27;100.00;101218.47;5068181;28;20291;-81
2022/08/19 01:50:24;;;;;;;37.15;26.80;;;;;;;16.16;100.00;101206.97;5071159;28;20025;-81
2022/08/19 01:52:49;;;;;;;35.20;25.63;;;;;;;16.15;100.00;101210.75;5071324;28;20455;-81
2022/08/19 01:55:18;;;;;;;36.80;25.13;;;;;;;16.17;100.00;101215.88;5070903;28;20496;-81
2022/08/19 01:57:49;;;;;;;41.20;25.50;;;;;;;16.15;100.00;101218.06;5072435;28;20024;-81
2022/08/19 02:00:17;;;;;;;36.20;25.35;;;;;;;16.09;100.00;101225.41;5069462;28;20388;-81
2022/08/19 02:02:43;;;;;;;39.97;25.58;;;;;;;16.04;100.00;101225.47;5070374;28;20547;-81
2022/08/19 02:05:09;;;;;;;39.40;24.98;;;;;;;16.03;100.00;101229.25;5069504;28;20124;-81
2022/08/19 02:07:35;;;;;;;35.60;24.13;;;;;;;16.03;100.00;101235.47;5069728;28;20094;-81
2022/08/19 02:10:04;;;;;;;36.35;24.63;;;;;;;16.03;100.00;101234.66;5070361;28;20017;-81
2022/08/19 02:12:29;;;;;;;37.65;25.13;;;;;;;15.99;100.00;101236.31;5070780;28;20032;-81
2022/08/19 02:14:54;;;;;;;35.33;24.10;;;;;;;16.00;100.00;101238.72;5070037;28;20456;-81
2022/08/19 02:17:20;;;;;;;35.17;24.80;;;;;;;15.95;100.00;101238.81;5070849;28;20535;-81
2022/08/19 02:19:45;;;;;;;37.90;25.60;;;;;;;15.89;100.00;101238.00;5070105;28;20035;-81
2022/08/19 02:22:11;;;;;;;33.20;23.70;;;;;;;15.88;100.00;101228.31;5070647;28;20395;-82
2022/08/19 02:24:36;;;;;;;38.63;25.33;;;;;;;15.89;100.00;101234.53;5069843;28;20016;-81
2022/08/19 02:27:02;;;;;;;38.90;24.77;;;;;;;15.82;100.00;101237.53;5069595;28;20654;-81
2022/08/19 02:29:27;;;;;;;39.33;25.20;;;;;;;15.80;100.00;101242.41;5070063;28;20024;-82
2022/08/19 02:31:53;;;;;;;41.60;26.13;;;;;;;15.74;100.00;101238.13;5068606;28;20024;-81
2022/08/19 02:34:18;;;;;;;36.50;24.70;;;;;;;15.69;100.00;101238.97;5054056;28;20032;-81
2022/08/19 02:36:44;;;;;;;34.90;24.77;;;;;;;15.66;100.00;101244.94;5070746;28;20486;-81
2022/08/19 02:39:09;;;;;;;34.63;24.20;;;;;;;15.64;100.00;101238.22;5067761;28;20024;-81
2022/08/19 02:41:35;;;;;;;36.88;25.60;;;;;;;15.65;100.00;101251.41;5068331;28;20054;-81
2022/08/19 02:44:03;;;;;;;39.13;24.93;;;;;;;15.57;100.00;101238.53;5067603;28;20051;-81
2022/08/19 02:46:31;;;;;;;36.28;25.23;;;;;;;15.65;100.00;101250.63;5071520;28;20103;-81
2022/08/19 02:49:00;;;;;;;33.85;24.92;;;;;;;15.60;100.00;101252.28;5067682;28;20466;-81
2022/08/19 02:51:34;;;;;;;34.75;24.55;;;;;;;15.59;100.00;101256.06;5069330;28;20032;-81
2022/08/19 02:54:01;;;;;;;36.00;25.30;;;;;;;15.53;100.00;101256.38;5068737;28;20040;-82
2022/08/19 02:56:27;;;;;;;36.67;25.40;;;;;;;15.54;100.00;101258.78;5070494;28;20166;-81
2022/08/19 02:58:53;;;;;;;40.30;25.57;;;;;;;15.48;100.00;101254.53;5070220;28;20033;-81
2022/08/19 03:01:22;;;;;;;35.70;24.27;;;;;;;15.49;100.00;101256.16;5068416;28;20029;-82
2022/08/19 03:03:48;;;;;;;43.88;25.85;;;;;;;15.45;100.00;101245.06;5069726;28;20112;-81
2022/08/19 03:06:15;;;;;;;39.00;25.83;;;;;;;15.49;100.00;101239.94;5069427;28;20107;-81
2022/08/19 03:08:45;;;;;;;41.88;23.65;;;;;;;15.49;100.00;101255.31;5067748;28;20142;-81
2022/08/19 03:11:23;;;;;;;41.33;26.25;;;;;;;15.46;100.00;101240.50;5063523;28;20115;-81
2022/08/19 03:13:50;;;;;;;40.33;24.88;;;;;;;15.48;100.00;101240.19;5069349;28;20060;-82
2022/08/19 03:16:20;;;;;;;37.17;24.98;;;;;;;15.46;100.00;101248.59;5069712;28;20446;-82
2022/08/19 03:18:46;;;;;;;41.40;25.83;;;;;;;15.43;100.00;101246.44;5069226;28;20499;-81
2022/08/19 03:21:23;;;;;;;42.97;25.40;;;;;;;15.39;100.00;101259.72;5072071;28;20028;-81
2022/08/19 03:23:49;;;;;;;40.25;26.58;;;;;;;15.38;100.00;101258.09;5070474;28;20480;-82
2022/08/19 03:26:14;;;;;;;39.72;24.98;;;;;;;15.34;100.00;101251.63;5069190;28;20040;-81
2022/08/19 03:28:41;;;;;;;40.33;25.27;;;;;;;15.35;100.00;101250.56;5069004;28;20029;-82
2022/08/19 03:31:11;;;;;;;44.58;27.13;;;;;;;15.35;100.00;101247.84;5066551;28;20037;-81
2022/08/19 03:33:37;;;;;;;43.03;27.50;;;;;;;15.33;100.00;101254.63;5063679;28;20659;-81
2022/08/19 03:36:10;;;;;;;44.85;26.95;;;;;;;15.33;100.00;101251.94;5069319;28;20511;-81
2022/08/19 03:38:38;;;;;;;49.17;28.13;;;;;;;15.30;100.00;101247.88;5068291;28;20056;-81
2022/08/19 03:41:09;;;;;;;44.63;27.30;;;;;;;15.29;100.00;101247.09;5070249;28;20103;-82
2022/08/19 03:43:37;;;;;;;45.70;29.40;;;;;;;15.27;100.00;101245.72;5065140;28;20286;-81
2022/08/19 03:46:10;;;;;;;45.85;27.38;;;;;;;15.25;100.00;101254.13;5070625;28;20048;-81
2022/08/19 03:48:36;;;;;;;46.25;28.63;;;;;;;15.23;100.00;101239.31;5069807;28;20039;-81
2022/08/19 03:51:02;;;;;;;46.67;28.60;;;;;;;15.15;100.00;101227.19;5067247;28;20119;-82
2022/08/19 03:53:28;;;;;;;47.40;29.10;;;;;;;15.17;100.00;101240.41;5069651;28;20436;-81
2022/08/19 03:55:55;;;;;;;46.90;29.70;;;;;;;15.12;100.00;101235.84;5067898;28;20025;-81
2022/08/19 03:58:21;;;;;;;46.10;29.65;;;;;;;15.10;100.00;101238.03;5069895;28;20028;-82
2022/08/19 04:00:46;;;;;;;48.70;30.10;;;;;;;15.08;100.00;101251.78;5068258;28;20069;-82
2022/08/19 04:03:11;;;;;;;51.67;31.70;;;;;;;15.02;100.00;101243.97;5067330;28;20299;-81
2022/08/19 04:05:37;;;;;;;51.27;30.90;;;;;;;15.03;100.00;101251.00;5067695;28;20040;-81
2022/08/19 04:08:03;;;;;;;56.03;30.97;;;;;;;15.01;100.00;101262.06;5064711;28;20037;-81
2022/08/19 04:10:30;;;;;;;49.88;30.63;;;;;;;15.03;100.00;101251.81;5066950;28;20042;-82
2022/08/19 04:12:55;;;;;;;51.95;31.73;;;;;;;15.02;100.00;101243.97;5069396;28;20652;-81
2022/08/19 04:15:20;;;;;;;54.17;32.27;;;;;;;14.99;100.00;101234.56;5069437;28;20165;-81
2022/08/19 04:17:46;;;;;;;57.80;31.43;;;;;;;14.99;100.00;101246.16;5070177;28;20128;-81
2022/08/19 04:20:12;;;;;;;46.75;30.65;;;;;;;14.96;100.00;101245.91;5068366;28;20029;-81
2022/08/19 04:22:37;;;;;;;53.37;31.60;;;;;;;14.92;100.00;101237.56;5068567;28;20028;-81
2022/08/19 04:25:02;;;;;;;50.43;30.77;;;;;;;14.96;100.00;101241.34;5072175;28;20111;-81
2022/08/19 04:27:28;;;;;;;49.60;30.90;;;;;;;14.94;100.00;101248.88;5071898;28;20025;-81
2022/08/19 04:29:53;;;;;;;55.87;32.37;;;;;;;14.91;100.00;101241.34;5072338;28;20420;-81
2022/08/19 04:32:18;;;;;;;53.13;31.73;;;;;;;14.91;100.00;101240.53;5049450;28;20074;-81
2022/08/19 04:34:44;;;;;;;50.67;30.83;;;;;;;14.86;100.00;101235.16;5064439;28;20124;-81
2022/08/19 04:37:12;;;;;;;52.03;30.60;;;;;;;14.83;100.00;101236.50;5073581;28;20047;-81
2022/08/19 04:42:41;;;;;;;51.22;29.50;;;;;;;14.76;100.00;101234.13;5073261;28;20442;-81
2022/08/19 04:45:10;;;;;;;52.92;30.70;;;;;;;14.75;100.00;101232.50;5072093;28;20020;-81
2022/08/19 04:47:37;;;;;;;56.30;32.88;;;;;;;14.77;100.00;101238.44;5073480;28;20032;-81
2022/08/19 04:50:04;;;;;;;51.80;31.75;;;;;;;14.71;100.00;101226.03;5059093;28;20486;-81
2022/08/19 04:52:31;;;;;;;52.70;31.30;;;;;;;14.75;100.00;101229.81;5068844;28;20036;-81
2022/08/19 04:54:58;;;;;;;53.90;31.07;;;;;;;14.77;100.00;101243.03;5071289;28;20021;-82
2022/08/19 04:57:23;;;;;;;52.87;32.00;;;;;;;14.79;100.00;101241.66;5073218;28;20298;-80
2022/08/19 04:59:53;;;;;;;51.90;31.95;;;;;;;14.80;100.00;101258.63;5064053;28;20016;-80
2022/08/19 05:02:18;;;;;;;59.03;33.28;;;;;;;14.80;100.00;101259.47;5072502;28;20040;-81
2022/08/19 05:04:43;;;;;;;55.33;32.87;;;;;;;14.90;100.00;101263.19;5070559;28;20792;-80
2022/08/19 05:07:09;;;;;;;64.72;35.45;;;;;;;14.96;100.00;101271.00;5053667;28;20048;-80
2022/08/19 05:09:35;;;;;;;58.87;33.97;;;;;;;14.99;100.00;101266.94;5061054;28;20086;-80
2022/08/19 05:12:01;;;;;;;62.60;35.88;;;;;;;15.07;100.00;101279.06;5072003;28;20056;-80
2022/08/19 05:14:26;;;;;;;62.72;35.67;;;;;;;15.06;100.00;101270.16;5071933;28;20046;-80
2022/08/19 05:16:51;;;;;;;61.47;34.53;;;;;;;15.12;100.00;101279.81;5071529;28;20480;-80
2022/08/19 05:24:45;;;;;;;62.20;34.35;;;;;;;15.22;100.00;101280.88;5070477;28;20048;-80
2022/08/19 05:27:10;;;;;;;62.47;34.80;;;;;;;15.34;100.00;101284.03;5070679;28;20028;-80
2022/08/19 05:29:35;;;;;;;66.13;35.77;;;;;;;15.47;100.00;101298.00;5072009;28;20119;-80
2022/08/19 05:32:04;;;;;;;75.10;38.65;;;;;;;15.63;100.00;101301.41;5070473;28;20032;-80
2022/08/19 05:34:31;;;;;;;73.87;39.47;;;;;;;15.71;100.00;101298.09;5069689;28;20033;-81
2022/08/19 05:36:58;;;;;;;81.17;41.23;;;;;;;15.87;100.00;101302.38;5072805;28;20274;-81
2022/08/19 05:39:26;;;;;;;77.55;40.53;;;;;;;15.98;100.00;101305.78;5071911;28;20024;-81
2022/08/19 05:41:57;;;;;;;87.28;44.92;;;;;;;16.09;100.00;101303.78;5072034;28;20024;-81
2022/08/19 05:44:23;;;;;;;90.43;45.22;;;;;;;16.15;100.00;101308.06;5064561;28;20035;-81
2022/08/19 05:46:52;;;;;;;88.93;43.80;;;;;;;16.28;100.00;101306.63;5071750;28;20024;-82
2022/08/19 05:49:19;;;;;;;87.30;44.22;;;;;;;16.43;100.00;101313.75;5062550;28;20025;-81
2022/08/19 05:51:44;;;;;;;84.75;43.17;;;;;;;16.54;100.00;101309.06;5070805;28;20024;-81
2022/08/19 05:54:13;;;;;;;85.00;43.70;;;;;;;16.65;100.00;101315.16;5070901;28;20028;-81
2022/08/19 05:56:40;;;;;;;85.97;44.63;;;;;;;16.71;100.00;101305.91;5069413;28;20024;-80
2022/08/19 05:59:09;;;;;;;88.88;44.72;;;;;;;16.82;100.00;101298.47;5071952;28;20033;-81
2022/08/19 06:01:36;;;;;;;84.60;43.80;;;;;;;16.91;100.00;101306.78;5065161;28;20025;-81
2022/08/19 06:04:03;;;;;;;92.28;45.47;;;;;;;16.97;100.00;101308.38;5069868;28;20594;-86
2022/08/19 06:06:28;;;;;;;85.55;42.15;;;;;;;17.01;100.00;101297.75;5070484;28;20029;-86
2022/08/19 06:08:54;;;;;;;86.57;44.37;;;;;;;17.03;100.00;101290.94;5068875;28;20029;-84
2022/08/19 06:11:26;;;;;;;79.37;43.03;;;;;;;17.09;100.00;101291.69;5066786;28;20020;-83
2022/08/19 06:13:53;;;;;;;80.72;42.65;;;;;;;17.16;100.00;101296.75;5068852;28;20103;-85
2022/08/19 06:16:20;;;;;;;81.60;43.35;;;;;;;17.22;100.00;101295.56;5070311;28;20036;-85
2022/08/19 06:18:46;;;;;;;81.53;42.47;;;;;;;17.29;100.00;101285.19;5050657;28;20021;-84
2022/08/19 06:21:11;;;;;;;80.33;42.10;;;;;;;17.32;100.00;101292.75;5069559;28;20047;-84
2022/08/19 06:23:36;;;;;;;82.07;41.60;;;;;;;17.38;100.00;101294.25;5070065;28;20033;-85
2022/08/19 06:26:02;;;;;;;74.00;39.60;;;;;;;17.46;100.00;101292.81;5068510;28;20071;-84
2022/08/19 06:28:27;;;;;;;80.63;41.60;;;;;;;17.58;100.00;101302.41;5066725;28;20117;-85
2022/08/19 06:30:52;;;;;;;75.10;38.13;;;;;;;17.60;100.00;101292.88;5068242;28;20036;-84
2022/08/19 06:33:17;;;;;;;71.57;36.83;;;;;;;17.63;100.00;101278.75;5062123;28;20122;-84
2022/08/19 06:35:43;;;;;;;76.63;39.00;;;;;;;17.68;100.00;101286.81;5065900;28;20044;-84
2022/08/19 06:38:09;;;;;;;69.23;37.37;;;;;;;17.77;100.00;101278.00;5061186;28;20029;-84
2022/08/19 06:40:35;;;;;;;71.63;38.35;;;;;;;17.86;100.00;101287.84;5067937;28;20032;-84
2022/08/19 06:43:01;;;;;;;69.60;37.15;;;;;;;17.93;100.00;101292.91;5068827;28;20032;-84
2022/08/19 06:45:27;;;;;;;69.18;33.50;;;;;;;17.98;100.00;101295.56;5051739;28;20040;-84
2022/08/19 06:47:55;;;;;;;64.63;33.37;;;;;;;17.96;100.00;101278.75;5042818;28;20032;-85
2022/08/19 06:50:21;;;;;;;67.40;34.10;;;;;;;18.07;100.00;101289.47;5066479;28;20040;-84
2022/08/19 06:52:47;;;;;;;62.83;34.13;;;;;;;18.20;100.00;101290.59;5067827;28;20031;-84
2022/08/19 06:55:12;;;;;;;63.92;32.75;;;;;;;18.30;100.00;101291.22;5071044;28;20033;-85
2022/08/19 06:57:38;;;;;;;60.17;31.73;;;;;;;18.42;100.00;101298.88;5070286;28;20403;-83
2022/08/19 07:00:06;;;;;;;57.50;30.70;;;;;;;18.53;100.00;101294.06;5067884;28;20104;-83
2022/08/19 07:02:31;;;;;;;57.80;30.50;;;;;;;18.69;100.00;101302.72;5069789;28;20115;-82
2022/08/19 07:04:57;;;;;;;55.57;31.33;;;;;;;18.75;100.00;101300.69;5059201;28;20120;-82
2022/08/19 07:07:23;;;;;;;61.58;30.77;;;;;;;18.79;100.00;101301.72;5064159;28;20681;-82
2022/08/19 07:09:50;;;;;;;57.22;29.35;;;;;;;18.81;100.00;101295.97;5069640;28;20023;-82
2022/08/19 07:12:15;;;;;;;57.00;29.13;;;;;;;18.85;99.14;101299.69;5068634;28;20089;-82
2022/08/19 07:14:42;;;;;;;56.03;29.13;;;;;;;18.85;98.98;101300.50;5069474;28;20928;-82
2022/08/19 07:17:10;;;;;;;56.03;29.15;;;;;;;18.91;98.99;101306.63;5065417;28;20033;-80
2022/08/19 07:19:36;;;;;;;49.30;27.23;;;;;;;18.99;98.14;101311.38;5068602;28;20028;-79
2022/08/19 07:22:04;;;;;;;56.03;28.07;;;;;;;19.10;98.10;101313.88;5067930;28;20302;-80
2022/08/19 07:24:30;;;;;;;52.08;26.88;;;;;;;19.18;97.70;101319.38;5053097;28;20033;-79
2022/08/19 07:27:00;;;;;;;48.35;27.08;;;;;;;19.40;97.45;101319.75;5061105;28;20033;-80
2022/08/19 07:29:26;;;;;;;53.95;28.55;;;;;;;19.63;94.85;101328.75;5070169;28;20028;-80
2022/08/19 07:31:56;;;;;;;51.25;27.17;;;;;;;19.80;94.62;101325.38;5067646;28;20033;-79
2022/08/19 07:34:22;;;;;;;47.45;27.02;;;;;;;20.14;92.67;101329.47;5068531;28;20395;-80
2022/08/19 07:36:49;;;;;;;50.42;28.05;;;;;;;20.46;91.20;101313.13;5067607;28;20020;-80
2022/08/19 07:39:18;;;;;;;52.33;28.42;;;;;;;20.82;88.29;101323.06;5068083;28;20558;-82
2022/08/19 07:41:44;;;;;;;46.90;26.40;;;;;;;21.11;87.08;101319.00;5061717;28;20031;-81
2022/08/19 07:44:12;;;;;;;54.43;29.53;;;;;;;21.37;85.15;101332.66;5048993;28;20323;-81
2022/08/19 07:46:44;;;;;;;51.22;28.95;;;;;;;21.42;85.32;101339.88;5055636;28;20522;-81
2022/08/19 07:49:18;;;;;;;52.05;28.83;;;;;;;21.36;84.29;101350.13;5057689;28;20071;-82
2022/08/19 07:51:49;;;;;;;49.55;28.50;;;;;;;21.43;84.93;101349.66;5063430;28;20033;-81
2022/08/19 07:54:18;;;;;;;49.00;28.33;;;;;;;21.61;83.48;101354.00;5053304;28;20024;-81
2022/08/19 07:59:20;;;;;;;51.78;31.48;;;;;;;21.63;82.99;101353.72;5564211;23;20111;-82
2022/08/19 08:01:47;;;;;;;52.90;31.15;;;;;;;21.57;82.94;101357.69;5067703;28;20024;-82
2022/08/19 08:09:43;;;;;;;48.57;30.53;;;;;;;22.04;80.92;101355.09;5068564;28;20277;-82
2022/08/19 08:12:16;;;;;;;60.30;33.58;;;;;;;22.08;79.85;101366.19;5068316;28;20404;-81
2022/08/19 08:14:50;;;;;;;55.88;33.67;;;;;;;22.17;80.79;101366.97;5067171;28;20039;-81
2022/08/19 08:17:17;;;;;;;50.45;32.63;;;;;;;22.23;79.62;101362.13;5067207;28;20039;-86
2022/08/19 08:19:43;;;;;;;52.65;32.00;;;;;;;22.37;79.21;101368.19;5067394;28;20033;-81
2022/08/19 08:23:21;;;;;;;51.13;32.60;;;;;;;22.62;78.01;101367.69;5069369;28;20020;-81
2022/08/19 08:24:58;;;;;;;51.22;30.77;;;;;;;22.83;76.15;101367.75;5039758;28;20040;-81
2022/08/19 08:27:24;;;;;;;49.33;32.58;;;;;;;22.78;76.68;101366.03;5030901;28;20244;-83
2022/08/19 08:29:49;;;;;;;50.20;33.28;;;;;;;22.70;76.33;101366.84;5048433;28;20535;-81
2022/08/19 08:32:14;;;;;;;46.60;30.07;;;;;;;23.13;75.96;101373.22;5044407;28;20033;-82
2022/08/19 08:34:40;;;;;;;51.97;31.30;;;;;;;23.18;75.18;101372.25;5049091;28;20491;-85
2022/08/19 08:37:05;;;;;;;49.00;31.20;;;;;;;23.27;74.25;101381.22;5052454;28;20087;-83
2022/08/19 08:39:30;;;;;;;46.13;30.40;;;;;;;23.18;74.26;101383.19;5060443;28;20140;-83
2022/08/19 08:42:07;;;;;;;46.75;29.63;;;;;;;23.18;74.84;101383.19;5047750;28;20080;-83
2022/08/19 08:44:35;;;;;;;45.80;30.13;;;;;;;23.21;73.54;101388.81;5045905;28;20120;-83
2022/08/19 08:47:10;;;;;;;42.38;29.13;;;;;;;23.17;73.32;101392.50;5046329;28;20026;-83
2022/08/19 08:49:55;;;;;;;42.53;29.83;;;;;;;23.42;74.52;101394.28;5068024;28;20349;-85
2022/08/19 08:52:23;;;;;;;46.50;30.02;;;;;;;23.28;71.81;101393.75;5058304;28;20032;-82
2022/08/19 08:54:54;;;;;;;44.60;28.98;;;;;;;23.17;73.05;101395.25;5037215;28;20070;-82
2022/08/19 08:57:27;;;;;;;42.05;27.65;;;;;;;23.43;72.76;101389.66;5038593;28;20036;-82
2022/08/19 08:59:58;;;;;;;39.33;27.65;;;;;;;23.86;71.89;101396.69;5048099;28;20035;-84
2022/08/19 09:02:24;;;;;;;38.35;27.15;;;;;;;24.12;69.58;101386.66;5052915;28;20070;-82
2022/08/19 09:04:49;;;;;;;38.60;25.93;;;;;;;24.05;68.51;101376.28;5052557;28;20060;-82
2022/08/19 09:10:36;;;;;;;39.43;26.77;;;;;;;24.13;68.61;101388.28;5668280;22;20419;-82
2022/08/19 09:13:14;;;;;;;36.47;24.97;;;;;;;23.97;70.57;101385.38;5062964;28;20808;-83
2022/08/19 09:15:53;;;;;;;33.38;22.40;;;;;;;24.33;69.33;101392.13;5068922;28;20034;-81
2022/08/19 09:18:18;;;;;;;39.15;22.52;;;;;;;24.43;65.84;101385.41;5051866;28;20021;-81
2022/08/19 09:20:44;;;;;;;33.47;21.70;;;;;;;24.43;65.70;101379.94;5051131;28;20036;-81
2022/08/19 09:23:10;;;;;;;37.50;21.03;;;;;;;24.32;65.00;101385.81;5056351;28;20176;-81
2022/08/19 09:25:39;;;;;;;36.63;22.43;;;;;;;24.28;66.56;101395.06;5050837;28;20322;-81
2022/08/19 09:28:06;;;;;;;33.35;20.75;;;;;;;24.33;66.27;101389.38;5041315;28;20029;-81
2022/08/19 09:30:39;;;;;;;36.55;22.40;;;;;;;24.34;66.20;101399.19;5050920;28;20439;-81
2022/08/19 09:33:05;;;;;;;35.50;22.60;;;;;;;24.08;66.98;101389.28;5052055;28;20057;-81
2022/08/19 09:35:30;;;;;;;35.38;23.67;;;;;;;23.98;67.83;101403.41;5051472;28;20021;-81
2022/08/19 09:37:57;;;;;;;36.87;24.90;;;;;;;23.80;67.36;101399.97;5050003;28;20625;-81
2022/08/19 09:40:22;;;;;;;36.58;25.48;;;;;;;23.70;67.96;101402.00;5058428;28;20056;-81
2022/08/19 09:42:48;;;;;;;39.05;26.30;;;;;;;23.48;68.25;101403.09;5070913;28;20067;-81
2022/08/19 09:45:15;;;;;;;41.03;26.00;;;;;;;23.28;69.34;101408.19;5051651;28;20033;-81
2022/08/19 09:47:40;;;;;;;36.75;26.45;;;;;;;23.07;70.26;101405.41;5050179;28;20500;-82
2022/08/19 09:50:08;;;;;;;43.40;27.80;;;;;;;22.90;71.19;101402.75;5056274;28;20082;-82
2022/08/19 09:52:36;;;;;;;39.13;26.70;;;;;;;22.91;71.84;101399.72;5069012;28;20543;-81
2022/08/19 09:55:04;;;;;;;35.03;25.02;;;;;;;23.30;70.83;101399.69;5047786;28;20029;-81
2022/08/19 09:57:29;;;;;;;40.38;25.05;;;;;;;23.62;69.79;101405.59;5033271;28;20476;-81
2022/08/19 09:59:54;;;;;;;43.33;26.37;;;;;;;23.85;68.49;101406.03;5049166;28;20033;-82
2022/08/19 10:02:20;;;;;;;43.00;27.43;;;;;;;23.68;68.59;101407.00;5058064;28;20028;-84
2022/08/19 10:07:29;;;;;;;43.78;27.35;;;;;;;23.57;68.49;101405.78;5040678;28;20051;-81
2022/08/19 10:09:55;;;;;;;40.80;27.60;;;;;;;23.79;69.08;101417.53;5041449;28;20147;-81
2022/08/19 10:12:20;;;;;;;40.35;26.67;;;;;;;23.95;67.96;101415.00;5067163;28;20046;-82
2022/08/19 10:14:46;;;;;;;40.23;26.47;;;;;;;24.06;67.87;101404.47;5050535;28;20021;-82
2022/08/19 10:17:11;;;;;;;38.78;25.15;;;;;;;24.13;67.69;101411.00;5049587;28;20091;-81
2022/08/19 10:19:37;;;;;;;38.30;25.57;;;;;;;24.20;66.96;101410.44;5046310;28;20028;-81
2022/08/19 10:22:04;;;;;;;45.72;25.70;;;;;;;24.15;67.08;101416.13;5044605;28;20040;-80
2022/08/19 10:24:30;;;;;;;39.35;24.00;;;;;;;24.30;66.80;101412.75;5043378;28;20491;-80
2022/08/19 10:26:56;;;;;;;36.63;23.95;;;;;;;24.60;66.21;101409.03;5045610;28;20025;-81
2022/08/19 10:29:21;;;;;;;37.50;23.90;;;;;;;24.76;64.19;101407.25;5045929;28;20119;-80
2022/08/19 10:31:47;;;;;;;38.40;24.67;;;;;;;24.61;64.77;101416.94;5043280;28;20048;-82
2022/08/19 10:34:13;;;;;;;42.13;24.83;;;;;;;24.65;64.88;101409.63;5045127;28;20115;-83
2022/08/19 10:36:40;;;;;;;36.10;25.05;;;;;;;24.79;64.49;101397.59;5042422;28;20160;-81
2022/08/19 10:39:09;;;;;;;35.17;23.67;;;;;;;25.05;63.97;101396.41;5043323;28;20094;-81
2022/08/19 10:41:37;;;;;;;38.50;24.63;;;;;;;25.23;63.46;101403.25;5042969;28;20292;-81
2022/08/19 10:44:08;;;;;;;40.08;24.00;;;;;;;25.18;62.68;101406.25;5043813;28;20109;-81
2022/08/19 10:46:37;;;;;;;37.92;23.25;;;;;;;25.47;62.66;101406.38;5046248;28;20082;-80
2022/08/19 10:49:04;;;;;;;38.78;23.23;;;;;;;25.52;61.34;101406.91;5045266;28;20025;-81
2022/08/19 10:54:15;;;;;;;39.30;23.35;;;;;;;25.84;60.67;101401.56;5050149;28;20040;-81
2022/08/19 10:56:52;;;;;;;37.35;23.67;;;;;;;25.79;60.40;101393.56;5047928;28;20080;-81
2022/08/19 10:59:35;;;;;;;37.45;23.70;;;;;;;26.00;61.63;101400.81;5049996;28;20028;-81
2022/08/19 11:02:04;;;;;;;36.72;23.77;;;;;;;25.89;59.98;101402.47;5049591;28;20397;-81
2022/08/19 11:04:29;;;;;;;35.03;22.50;;;;;;;25.78;60.19;101397.44;5050700;28;20021;-81
2022/08/19 11:06:55;;;;;;;37.33;24.40;;;;;;;25.63;59.66;101387.22;5047737;28;20349;-82
2022/08/19 11:09:24;;;;;;;41.70;23.73;;;;;;;25.53;61.19;101397.53;5050234;28;20112;-81
2022/08/19 11:11:50;;;;;;;39.37;21.53;;;;;;;25.37;60.66;101400.16;5049376;28;20272;-81
2022/08/19 11:14:20;;;;;;;37.33;22.73;;;;;;;25.28;61.40;101385.78;5050134;28;20035;-81
2022/08/19 11:16:48;;;;;;;31.42;21.05;;;;;;;25.26;61.47;101382.59;5047253;28;20056;-81
2022/08/19 11:19:16;;;;;;;32.17;21.85;;;;;;;25.18;61.84;101391.72;5059345;28;20029;-81
2022/08/19 11:21:44;;;;;;;35.08;22.33;;;;;;;25.30;61.63;101394.44;5049613;28;20028;-80
2022/08/19 11:24:15;;;;;;;30.55;21.10;;;;;;;25.65;60.90;101401.38;5033537;28;20087;-81
2022/08/19 11:26:41;;;;;;;31.50;21.83;;;;;;;25.82;60.02;101401.09;5038595;28;20021;-81
2022/08/19 11:29:11;;;;;;;33.10;22.33;;;;;;;25.90;59.40;101398.56;5049739;28;20032;-81
2022/08/19 11:31:39;;;;;;;37.40;23.33;;;;;;;26.07;58.55;101387.28;5049241;28;20541;-81
2022/08/19 11:34:06;;;;;;;35.77;22.53;;;;;;;26.19;58.14;101382.88;5050530;28;20116;-81
2022/08/19 11:36:33;;;;;;;31.60;21.40;;;;;;;26.72;58.17;101388.94;5040094;28;20322;-81